createdAt,value
2023-03-14T05:43:47.496Z,6.62
2023-03-14T05:46:15.396Z,7.25
2023-03-14T05:48:43.415Z,6.55
2023-03-14T05:53:38.290Z,6.62
2023-03-14T05:56:11.401Z,7.70
2023-03-14T05:58:39.651Z,7.05
2023-03-14T06:01:07.969Z,6.68
2023-03-14T06:03:36.307Z,6.82
2023-03-14T06:06:04.681Z,5.87
2023-03-14T06:08:32.564Z,6.53
2023-03-14T06:11:00.491Z,7.03
2023-03-14T06:13:28.477Z,6.50
2023-03-14T06:15:55.869Z,6.40
2023-03-14T06:18:23.663Z,5.87
2023-03-14T06:20:56.666Z,6.37
2023-03-14T06:23:26.282Z,6.68
2023-03-14T06:25:54.010Z,6.28
2023-03-14T06:28:21.848Z,6.05
2023-03-14T06:30:49.895Z,6.07
2023-03-14T06:33:17.468Z,6.10
2023-03-14T06:35:45.333Z,5.72
2023-03-14T06:38:13.249Z,7.78
2023-03-14T06:40:40.700Z,5.75
2023-03-14T06:43:09.090Z,6.15
2023-03-14T06:45:37.516Z,6.80
2023-03-14T06:48:05.295Z,6.18
2023-03-14T06:50:33.415Z,6.22
2023-03-14T06:53:01.127Z,5.78
2023-03-14T06:55:30.227Z,6.72
2023-03-14T06:57:57.764Z,6.40
2023-03-14T07:00:26.088Z,6.30
2023-03-14T07:02:53.809Z,6.43
2023-03-14T07:05:22.444Z,6.20
2023-03-14T07:07:50.306Z,6.07
2023-03-14T07:10:18.755Z,6.10
2023-03-14T07:12:46.172Z,6.55
2023-03-14T07:15:18.879Z,6.18
2023-03-14T07:17:49.181Z,6.65
2023-03-14T07:20:18.913Z,6.72
2023-03-14T07:22:49.632Z,5.87
2023-03-14T07:25:18.496Z,6.07
2023-03-14T07:27:46.894Z,6.20
2023-03-14T07:30:15.044Z,6.22
2023-03-14T07:32:42.845Z,7.05
2023-03-14T07:35:10.792Z,6.20
2023-03-14T07:37:38.590Z,6.37
2023-03-14T07:40:08.317Z,6.25
2023-03-14T07:42:36.165Z,7.15
2023-03-14T07:45:10.572Z,6.35
2023-03-14T07:47:38.150Z,6.20
2023-03-14T07:50:06.642Z,6.32
2023-03-14T07:52:35.315Z,6.97
2023-03-14T07:55:02.799Z,7.25
2023-03-14T07:57:30.510Z,6.55
2023-03-14T07:59:58.004Z,6.18
2023-03-14T08:02:25.710Z,5.70
2023-03-14T08:04:53.791Z,6.70
2023-03-14T08:07:21.185Z,5.87
2023-03-14T08:09:48.609Z,6.22
2023-03-14T08:12:17.449Z,5.50
2023-03-14T08:14:45.119Z,5.18
2023-03-14T08:17:12.703Z,5.43
2023-03-14T08:19:42.380Z,5.53
2023-03-14T08:22:09.760Z,5.85
2023-03-14T08:24:37.204Z,5.68
2023-03-14T08:27:05.056Z,5.90
2023-03-14T08:29:32.583Z,6.55
2023-03-14T08:32:00.125Z,6.62
2023-03-14T08:34:27.880Z,5.50
2023-03-14T08:36:57.785Z,5.60
2023-03-14T09:11:29.717Z,3.80
2023-03-14T09:13:57.134Z,4.10
2023-03-14T09:16:25.030Z,4.32
2023-03-14T09:19:00.621Z,3.45
2023-03-14T09:21:28.522Z,3.67
2023-03-14T09:23:55.977Z,4.35
2023-03-14T09:26:23.346Z,4.12
2023-03-14T09:28:51.047Z,4.20
2023-03-14T09:31:18.641Z,4.30
2023-03-14T09:33:46.187Z,4.28
2023-03-14T09:36:13.916Z,4.75
2023-03-14T09:38:41.613Z,3.60
2023-03-14T09:41:16.653Z,3.00
2023-03-14T09:43:46.605Z,2.83
2023-03-14T09:46:15.758Z,2.20
2023-03-14T09:48:44.457Z,1.85
2023-03-14T09:51:15.625Z,1.10
2023-03-14T09:53:45.670Z,1.20
2023-03-14T09:56:32.159Z,0.80
2023-03-14T09:59:01.521Z,0.80
2023-03-14T10:01:32.782Z,1.10
2023-03-14T10:04:05.645Z,0.88
2023-03-14T10:06:33.278Z,1.00
2023-03-14T10:09:02.002Z,1.17
2023-03-14T10:11:29.738Z,0.95
2023-03-14T10:14:09.357Z,1.00
2023-03-14T10:16:41.718Z,1.12
2023-03-14T10:19:14.598Z,1.10
2023-03-14T10:21:53.919Z,0.82
2023-03-14T10:24:33.376Z,1.42
2023-03-14T10:27:03.368Z,1.08
2023-03-14T10:29:32.851Z,0.90
2023-03-14T10:32:06.102Z,1.10
2023-03-14T10:34:36.232Z,1.08
2023-03-14T10:37:19.476Z,1.00
2023-03-14T10:39:49.537Z,1.10
2023-03-14T10:42:34.989Z,0.90
2023-03-14T10:45:11.052Z,1.15
2023-03-14T10:47:50.163Z,1.40
2023-03-14T10:50:25.517Z,1.15
2023-03-14T10:53:03.053Z,1.10
2023-03-14T10:55:40.828Z,1.23
2023-03-14T10:58:40.554Z,1.40
2023-03-14T11:01:27.132Z,1.10
2023-03-14T11:04:02.206Z,1.10
2023-03-14T11:06:54.396Z,1.02
2023-03-14T11:09:48.185Z,0.85
2023-03-14T11:12:47.202Z,1.25
2023-03-14T11:15:38.036Z,0.90
2023-03-14T11:18:21.009Z,0.82
2023-03-14T11:20:57.062Z,0.70
2023-03-14T11:23:30.660Z,0.85
2023-03-14T11:25:58.602Z,0.85
2023-03-14T11:28:39.554Z,0.60
2023-03-14T11:31:28.222Z,0.90
2023-03-14T11:34:03.212Z,0.93
